sensor_id;sensor_type;location;lat;lon;timestamp;temperature;humidity
6244;DHT22;3155;49.940;8.450;2023-04-15T00:01:10;3.30;99.90
6244;DHT22;3155;49.940;8.450;2023-04-15T00:03:37;3.20;1.00
6244;DHT22;3155;49.940;8.450;2023-04-15T00:06:05;3.00;1.00
6244;DHT22;3155;49.940;8.450;2023-04-15T00:08:32;2.80;1.00
6244;DHT22;3155;49.940;8.450;2023-04-15T00:10:59;2.70;99.90
6244;DHT22;3155;49.940;8.450;2023-04-15T00:13:31;2.60;99.90
6244;DHT22;3155;49.940;8.450;2023-04-15T00:16:00;2.60;99.90
6244;DHT22;3155;49.940;8.450;2023-04-15T00:18:27;2.60;1.00
6244;DHT22;3155;49.940;8.450;2023-04-15T00:20:55;2.80;1.00
6244;DHT22;3155;49.940;8.450;2023-04-15T00:23:22;3.00;99.90
6244;DHT22;3155;49.940;8.450;2023-04-15T00:25:49;3.10;1.00
6244;DHT22;3155;49.940;8.450;2023-04-15T00:28:17;3.10;99.90
6244;DHT22;3155;49.940;8.450;2023-04-15T00:30:46;3.10;1.00
6244;DHT22;3155;49.940;8.450;2023-04-15T00:33:13;3.00;1.00
6244;DHT22;3155;49.940;8.450;2023-04-15T00:35:40;2.90;24.20
6244;DHT22;3155;49.940;8.450;2023-04-15T00:38:07;2.80;99.90
6244;DHT22;3155;49.940;8.450;2023-04-15T00:40:34;2.80;53.10
6244;DHT22;3155;49.940;8.450;2023-04-15T00:43:01;2.70;1.00
6244;DHT22;3155;49.940;8.450;2023-04-15T00:45:28;2.60;1.00
6244;DHT22;3155;49.940;8.450;2023-04-15T00:47:55;2.50;99.90
6244;DHT22;3155;49.940;8.450;2023-04-15T00:50:22;2.50;1.00
6244;DHT22;3155;49.940;8.450;2023-04-15T00:52:49;2.70;1.00
6244;DHT22;3155;49.940;8.450;2023-04-15T00:55:16;2.90;1.00
6244;DHT22;3155;49.940;8.450;2023-04-15T00:57:43;3.10;1.00
6244;DHT22;3155;49.940;8.450;2023-04-15T01:00:10;3.20;1.00
6244;DHT22;3155;49.940;8.450;2023-04-15T01:02:37;3.30;1.00
6244;DHT22;3155;49.940;8.450;2023-04-15T01:05:05;3.40;1.00
6244;DHT22;3155;49.940;8.450;2023-04-15T01:07:33;3.40;99.90
6244;DHT22;3155;49.940;8.450;2023-04-15T01:10:03;3.40;99.90
6244;DHT22;3155;49.940;8.450;2023-04-15T01:12:33;3.40;99.90
6244;DHT22;3155;49.940;8.450;2023-04-15T01:15:04;3.20;1.00
6244;DHT22;3155;49.940;8.450;2023-04-15T01:17:31;2.80;99.90
6244;DHT22;3155;49.940;8.450;2023-04-15T01:19:58;2.50;99.90
6244;DHT22;3155;49.940;8.450;2023-04-15T01:22:25;2.20;99.90
6244;DHT22;3155;49.940;8.450;2023-04-15T01:25:12;2.00;99.90
6244;DHT22;3155;49.940;8.450;2023-04-15T01:27:41;1.90;1.00
6244;DHT22;3155;49.940;8.450;2023-04-15T01:30:08;1.90;35.50
6244;DHT22;3155;49.940;8.450;2023-04-15T01:32:36;2.00;99.90
6244;DHT22;3155;49.940;8.450;2023-04-15T01:35:03;2.00;1.00
6244;DHT22;3155;49.940;8.450;2023-04-15T01:37:31;2.00;40.70
6244;DHT22;3155;49.940;8.450;2023-04-15T01:39:58;2.10;99.90
6244;DHT22;3155;49.940;8.450;2023-04-15T01:42:25;2.10;1.00
6244;DHT22;3155;49.940;8.450;2023-04-15T01:44:52;2.20;1.00
6244;DHT22;3155;49.940;8.450;2023-04-15T01:47:19;2.30;99.90
6244;DHT22;3155;49.940;8.450;2023-04-15T01:49:46;2.30;99.90
6244;DHT22;3155;49.940;8.450;2023-04-15T01:52:12;2.30;99.90
6244;DHT22;3155;49.940;8.450;2023-04-15T01:54:39;2.50;99.90
6244;DHT22;3155;49.940;8.450;2023-04-15T01:57:06;2.50;99.90
6244;DHT22;3155;49.940;8.450;2023-04-15T01:59:33;2.50;99.90
6244;DHT22;3155;49.940;8.450;2023-04-15T02:02:00;2.60;99.90
6244;DHT22;3155;49.940;8.450;2023-04-15T02:04:27;2.60;99.90
6244;DHT22;3155;49.940;8.450;2023-04-15T02:06:53;2.50;99.90
6244;DHT22;3155;49.940;8.450;2023-04-15T02:09:23;2.30;99.90
6244;DHT22;3155;49.940;8.450;2023-04-15T02:11:51;2.10;97.70
6244;DHT22;3155;49.940;8.450;2023-04-15T02:14:19;1.90;58.70
6244;DHT22;3155;49.940;8.450;2023-04-15T02:16:46;1.70;99.90
6244;DHT22;3155;49.940;8.450;2023-04-15T02:19:14;1.70;99.90
6244;DHT22;3155;49.940;8.450;2023-04-15T02:21:41;1.70;99.90
6244;DHT22;3155;49.940;8.450;2023-04-15T02:24:11;1.70;99.90
6244;DHT22;3155;49.940;8.450;2023-04-15T02:26:38;1.70;99.90
6244;DHT22;3155;49.940;8.450;2023-04-15T02:29:05;1.70;99.90
6244;DHT22;3155;49.940;8.450;2023-04-15T02:31:32;1.60;99.90
6244;DHT22;3155;49.940;8.450;2023-04-15T02:34:02;1.50;99.90
6244;DHT22;3155;49.940;8.450;2023-04-15T02:36:30;1.30;99.90
6244;DHT22;3155;49.940;8.450;2023-04-15T02:38:57;1.30;99.90
6244;DHT22;3155;49.940;8.450;2023-04-15T02:41:24;1.30;99.90
6244;DHT22;3155;49.940;8.450;2023-04-15T02:43:53;1.30;99.90
6244;DHT22;3155;49.940;8.450;2023-04-15T02:46:20;1.30;99.90
6244;DHT22;3155;49.940;8.450;2023-04-15T02:48:49;1.30;99.90
6244;DHT22;3155;49.940;8.450;2023-04-15T02:51:20;1.30;99.90
6244;DHT22;3155;49.940;8.450;2023-04-15T02:53:49;1.20;99.90
6244;DHT22;3155;49.940;8.450;2023-04-15T02:56:16;1.20;99.90
6244;DHT22;3155;49.940;8.450;2023-04-15T02:58:44;1.00;99.90
6244;DHT22;3155;49.940;8.450;2023-04-15T03:01:11;0.90;99.90
6244;DHT22;3155;49.940;8.450;2023-04-15T03:03:39;0.90;99.90
6244;DHT22;3155;49.940;8.450;2023-04-15T03:06:06;0.90;99.90
6244;DHT22;3155;49.940;8.450;2023-04-15T03:08:34;0.70;99.90
6244;DHT22;3155;49.940;8.450;2023-04-15T03:11:01;0.60;99.90
6244;DHT22;3155;49.940;8.450;2023-04-15T03:13:28;0.50;99.90
6244;DHT22;3155;49.940;8.450;2023-04-15T03:15:55;0.40;99.90
6244;DHT22;3155;49.940;8.450;2023-04-15T03:18:22;0.30;99.90
6244;DHT22;3155;49.940;8.450;2023-04-15T03:20:52;0.40;99.90
6244;DHT22;3155;49.940;8.450;2023-04-15T03:23:22;0.40;1.00
6244;DHT22;3155;49.940;8.450;2023-04-15T03:25:48;0.50;1.00
6244;DHT22;3155;49.940;8.450;2023-04-15T03:28:15;0.50;1.00
6244;DHT22;3155;49.940;8.450;2023-04-15T03:30:48;0.50;1.00
6244;DHT22;3155;49.940;8.450;2023-04-15T03:33:15;0.60;1.00
6244;DHT22;3155;49.940;8.450;2023-04-15T03:35:42;0.60;1.00
6244;DHT22;3155;49.940;8.450;2023-04-15T03:38:09;0.60;1.00
6244;DHT22;3155;49.940;8.450;2023-04-15T03:40:35;0.60;1.00
6244;DHT22;3155;49.940;8.450;2023-04-15T03:43:02;0.50;1.00
6244;DHT22;3155;49.940;8.450;2023-04-15T03:45:29;0.60;1.00
6244;DHT22;3155;49.940;8.450;2023-04-15T03:47:56;0.70;1.00
6244;DHT22;3155;49.940;8.450;2023-04-15T03:50:41;0.60;1.00
6244;DHT22;3155;49.940;8.450;2023-04-15T03:53:08;0.60;1.00
6244;DHT22;3155;49.940;8.450;2023-04-15T03:55:35;0.60;1.00
6244;DHT22;3155;49.940;8.450;2023-04-15T03:58:02;0.60;1.00
6244;DHT22;3155;49.940;8.450;2023-04-15T04:00:29;0.60;1.00
6244;DHT22;3155;49.940;8.450;2023-04-15T04:02:56;0.70;1.00
6244;DHT22;3155;49.940;8.450;2023-04-15T04:05:23;0.70;1.00
6244;DHT22;3155;49.940;8.450;2023-04-15T04:07:58;0.70;1.00
6244;DHT22;3155;49.940;8.450;2023-04-15T04:10:25;0.70;1.00
6244;DHT22;3155;49.940;8.450;2023-04-15T04:12:55;0.60;1.00
6244;DHT22;3155;49.940;8.450;2023-04-15T04:15:21;0.50;1.00
6244;DHT22;3155;49.940;8.450;2023-04-15T04:17:48;0.40;1.00
6244;DHT22;3155;49.940;8.450;2023-04-15T04:20:15;0.40;1.00
6244;DHT22;3155;49.940;8.450;2023-04-15T04:22:42;0.40;1.00
6244;DHT22;3155;49.940;8.450;2023-04-15T04:25:09;0.40;1.00
6244;DHT22;3155;49.940;8.450;2023-04-15T04:27:36;0.30;1.00
6244;DHT22;3155;49.940;8.450;2023-04-15T04:30:03;0.40;1.00
6244;DHT22;3155;49.940;8.450;2023-04-15T04:32:30;0.40;1.00
6244;DHT22;3155;49.940;8.450;2023-04-15T04:34:57;0.50;1.00
6244;DHT22;3155;49.940;8.450;2023-04-15T04:37:25;0.40;1.00
6244;DHT22;3155;49.940;8.450;2023-04-15T04:39:52;0.40;1.00
6244;DHT22;3155;49.940;8.450;2023-04-15T04:42:19;0.30;1.00
6244;DHT22;3155;49.940;8.450;2023-04-15T04:44:46;0.30;1.00
6244;DHT22;3155;49.940;8.450;2023-04-15T04:47:12;0.30;1.00
6244;DHT22;3155;49.940;8.450;2023-04-15T04:49:39;0.30;1.00
6244;DHT22;3155;49.940;8.450;2023-04-15T04:52:13;0.30;1.00
6244;DHT22;3155;49.940;8.450;2023-04-15T04:54:42;0.30;1.00
6244;DHT22;3155;49.940;8.450;2023-04-15T04:57:09;0.40;1.00
6244;DHT22;3155;49.940;8.450;2023-04-15T04:59:36;0.40;1.00
6244;DHT22;3155;49.940;8.450;2023-04-15T05:02:03;0.50;1.00
6244;DHT22;3155;49.940;8.450;2023-04-15T05:04:30;0.50;1.00
6244;DHT22;3155;49.940;8.450;2023-04-15T05:06:57;0.60;1.00
6244;DHT22;3155;49.940;8.450;2023-04-15T05:09:27;0.70;1.00
6244;DHT22;3155;49.940;8.450;2023-04-15T05:11:55;0.70;1.00
6244;DHT22;3155;49.940;8.450;2023-04-15T05:14:22;0.80;1.00
6244;DHT22;3155;49.940;8.450;2023-04-15T05:16:49;0.90;1.00
6244;DHT22;3155;49.940;8.450;2023-04-15T05:19:16;1.00;1.00
6244;DHT22;3155;49.940;8.450;2023-04-15T05:21:42;1.10;1.00
6244;DHT22;3155;49.940;8.450;2023-04-15T05:24:09;1.20;1.00
6244;DHT22;3155;49.940;8.450;2023-04-15T05:26:36;1.20;1.00
6244;DHT22;3155;49.940;8.450;2023-04-15T05:29:03;1.30;1.00
6244;DHT22;3155;49.940;8.450;2023-04-15T05:31:30;1.40;1.00
6244;DHT22;3155;49.940;8.450;2023-04-15T05:33:57;1.50;2.20
6244;DHT22;3155;49.940;8.450;2023-04-15T05:36:23;1.70;11.80
6244;DHT22;3155;49.940;8.450;2023-04-15T05:38:50;1.80;20.40
6244;DHT22;3155;49.940;8.450;2023-04-15T05:41:17;2.00;26.60
6244;DHT22;3155;49.940;8.450;2023-04-15T05:43:45;2.10;24.60
6244;DHT22;3155;49.940;8.450;2023-04-15T05:46:14;2.20;23.30
6244;DHT22;3155;49.940;8.450;2023-04-15T05:48:41;2.30;31.30
6244;DHT22;3155;49.940;8.450;2023-04-15T05:51:08;2.50;42.80
6244;DHT22;3155;49.940;8.450;2023-04-15T05:53:35;2.70;48.60
6244;DHT22;3155;49.940;8.450;2023-04-15T05:56:02;3.00;49.60
6244;DHT22;3155;49.940;8.450;2023-04-15T05:58:29;3.20;44.20
6244;DHT22;3155;49.940;8.450;2023-04-15T06:00:56;3.30;35.70
6244;DHT22;3155;49.940;8.450;2023-04-15T06:03:22;3.50;24.80
6244;DHT22;3155;49.940;8.450;2023-04-15T06:05:49;3.70;3.10
6244;DHT22;3155;49.940;8.450;2023-04-15T06:08:16;3.80;1.00
6244;DHT22;3155;49.940;8.450;2023-04-15T06:10:51;3.90;1.00
6244;DHT22;3155;49.940;8.450;2023-04-15T06:13:21;4.10;1.00
6244;DHT22;3155;49.940;8.450;2023-04-15T06:15:47;4.20;1.00
6244;DHT22;3155;49.940;8.450;2023-04-15T06:18:14;4.40;1.00
6244;DHT22;3155;49.940;8.450;2023-04-15T06:20:41;4.50;99.90
6244;DHT22;3155;49.940;8.450;2023-04-15T06:23:10;4.70;99.90
6244;DHT22;3155;49.940;8.450;2023-04-15T06:25:37;4.90;1.00
6244;DHT22;3155;49.940;8.450;2023-04-15T06:28:04;5.10;99.90
6244;DHT22;3155;49.940;8.450;2023-04-15T06:30:31;5.30;1.00
6244;DHT22;3155;49.940;8.450;2023-04-15T06:32:57;5.60;99.90
6244;DHT22;3155;49.940;8.450;2023-04-15T06:35:24;5.80;1.00
6244;DHT22;3155;49.940;8.450;2023-04-15T06:37:51;6.10;1.00
6244;DHT22;3155;49.940;8.450;2023-04-15T06:40:24;6.30;99.90
6244;DHT22;3155;49.940;8.450;2023-04-15T06:42:51;6.50;99.90
6244;DHT22;3155;49.940;8.450;2023-04-15T06:45:20;7.00;1.00
6244;DHT22;3155;49.940;8.450;2023-04-15T06:47:50;7.70;46.60
6244;DHT22;3155;49.940;8.450;2023-04-15T06:50:17;8.40;1.00
6244;DHT22;3155;49.940;8.450;2023-04-15T06:52:44;9.00;99.90
6244;DHT22;3155;49.940;8.450;2023-04-15T06:55:11;9.70;99.90
6244;DHT22;3155;49.940;8.450;2023-04-15T06:57:38;10.10;99.90
6244;DHT22;3155;49.940;8.450;2023-04-15T07:00:05;10.30;1.00
6244;DHT22;3155;49.940;8.450;2023-04-15T07:02:33;10.60;60.40
6244;DHT22;3155;49.940;8.450;2023-04-15T07:05:00;10.70;1.00
6244;DHT22;3155;49.940;8.450;2023-04-15T07:07:27;10.90;1.00
6244;DHT22;3155;49.940;8.450;2023-04-15T07:09:54;11.20;99.90
6244;DHT22;3155;49.940;8.450;2023-04-15T07:12:21;11.90;99.90
6244;DHT22;3155;49.940;8.450;2023-04-15T07:14:47;12.70;1.00
6244;DHT22;3155;49.940;8.450;2023-04-15T07:17:17;13.40;99.90
6244;DHT22;3155;49.940;8.450;2023-04-15T07:19:44;13.40;1.00
6244;DHT22;3155;49.940;8.450;2023-04-15T07:22:12;13.50;1.00
6244;DHT22;3155;49.940;8.450;2023-04-15T07:24:38;13.40;99.90
6244;DHT22;3155;49.940;8.450;2023-04-15T07:27:05;12.80;1.00
6244;DHT22;3155;49.940;8.450;2023-04-15T07:29:32;12.80;1.00
6244;DHT22;3155;49.940;8.450;2023-04-15T07:32:02;12.90;1.00
6244;DHT22;3155;49.940;8.450;2023-04-15T07:34:29;13.00;99.90
6244;DHT22;3155;49.940;8.450;2023-04-15T07:36:58;13.40;1.00
6244;DHT22;3155;49.940;8.450;2023-04-15T07:39:24;13.60;99.90
6244;DHT22;3155;49.940;8.450;2023-04-15T07:41:51;13.80;99.90
6244;DHT22;3155;49.940;8.450;2023-04-15T07:44:18;14.20;1.00
6244;DHT22;3155;49.940;8.450;2023-04-15T07:46:44;14.20;73.70
6244;DHT22;3155;49.940;8.450;2023-04-15T07:49:11;14.30;1.00
6244;DHT22;3155;49.940;8.450;2023-04-15T07:51:38;14.20;1.00
6244;DHT22;3155;49.940;8.450;2023-04-15T07:54:05;14.40;1.00
6244;DHT22;3155;49.940;8.450;2023-04-15T07:56:42;14.70;1.00
6244;DHT22;3155;49.940;8.450;2023-04-15T07:59:09;15.30;1.00
6244;DHT22;3155;49.940;8.450;2023-04-15T08:01:36;15.30;1.00
6244;DHT22;3155;49.940;8.450;2023-04-15T08:04:03;15.50;1.00
6244;DHT22;3155;49.940;8.450;2023-04-15T08:06:30;15.90;1.00
6244;DHT22;3155;49.940;8.450;2023-04-15T08:08:57;16.00;1.00
6244;DHT22;3155;49.940;8.450;2023-04-15T08:11:24;16.00;1.00
6244;DHT22;3155;49.940;8.450;2023-04-15T08:13:51;16.60;1.00
6244;DHT22;3155;49.940;8.450;2023-04-15T08:16:25;17.10;1.00
6244;DHT22;3155;49.940;8.450;2023-04-15T08:18:54;16.30;1.00
6244;DHT22;3155;49.940;8.450;2023-04-15T08:21:22;16.90;1.00
6244;DHT22;3155;49.940;8.450;2023-04-15T08:23:51;17.00;1.00
6244;DHT22;3155;49.940;8.450;2023-04-15T08:26:18;17.10;1.00
6244;DHT22;3155;49.940;8.450;2023-04-15T08:28:46;16.80;1.00
6244;DHT22;3155;49.940;8.450;2023-04-15T08:31:14;15.70;1.00
6244;DHT22;3155;49.940;8.450;2023-04-15T08:33:42;15.60;1.00
6244;DHT22;3155;49.940;8.450;2023-04-15T08:36:09;15.40;1.00
6244;DHT22;3155;49.940;8.450;2023-04-15T08:38:35;15.40;1.00
6244;DHT22;3155;49.940;8.450;2023-04-15T08:41:20;15.80;1.00
6244;DHT22;3155;49.940;8.450;2023-04-15T08:43:52;16.00;1.00
6244;DHT22;3155;49.940;8.450;2023-04-15T08:46:27;16.50;1.00
6244;DHT22;3155;49.940;8.450;2023-04-15T08:48:56;17.10;1.00
6244;DHT22;3155;49.940;8.450;2023-04-15T08:51:24;17.00;1.00
6244;DHT22;3155;49.940;8.450;2023-04-15T08:53:51;16.90;99.90
6244;DHT22;3155;49.940;8.450;2023-04-15T08:56:24;17.00;97.70
6244;DHT22;3155;49.940;8.450;2023-04-15T08:58:54;17.40;99.90
6244;DHT22;3155;49.940;8.450;2023-04-15T09:01:21;17.40;99.90
6244;DHT22;3155;49.940;8.450;2023-04-15T09:03:49;17.70;3.00
6244;DHT22;3155;49.940;8.450;2023-04-15T09:06:16;17.40;6.40
6244;DHT22;3155;49.940;8.450;2023-04-15T09:08:44;17.80;5.50
6244;DHT22;3155;49.940;8.450;2023-04-15T09:11:10;17.70;99.90
6244;DHT22;3155;49.940;8.450;2023-04-15T09:13:38;17.50;99.90
6244;DHT22;3155;49.940;8.450;2023-04-15T09:16:05;17.00;99.90
6244;DHT22;3155;49.940;8.450;2023-04-15T09:18:36;16.20;1.00
6244;DHT22;3155;49.940;8.450;2023-04-15T09:21:22;16.40;1.00
6244;DHT22;3155;49.940;8.450;2023-04-15T09:23:57;16.60;99.90
6244;DHT22;3155;49.940;8.450;2023-04-15T09:26:35;17.00;99.90
6244;DHT22;3155;49.940;8.450;2023-04-15T09:29:09;17.20;1.00
6244;DHT22;3155;49.940;8.450;2023-04-15T09:31:40;16.80;99.90
6244;DHT22;3155;49.940;8.450;2023-04-15T09:34:07;16.40;1.00
6244;DHT22;3155;49.940;8.450;2023-04-15T09:36:53;16.20;99.90
6244;DHT22;3155;49.940;8.450;2023-04-15T09:39:21;15.80;99.90
6244;DHT22;3155;49.940;8.450;2023-04-15T09:42:05;16.00;99.90
6244;DHT22;3155;49.940;8.450;2023-04-15T09:44:33;16.50;99.90
6244;DHT22;3155;49.940;8.450;2023-04-15T09:47:05;16.90;1.00
6244;DHT22;3155;49.940;8.450;2023-04-15T09:49:31;17.20;99.90
6244;DHT22;3155;49.940;8.450;2023-04-15T09:52:01;17.40;1.00
6244;DHT22;3155;49.940;8.450;2023-04-15T09:54:36;17.60;82.80
6244;DHT22;3155;49.940;8.450;2023-04-15T09:57:07;17.50;99.90
6244;DHT22;3155;49.940;8.450;2023-04-15T09:59:36;17.60;99.90
6244;DHT22;3155;49.940;8.450;2023-04-15T10:02:05;17.60;10.20
6244;DHT22;3155;49.940;8.450;2023-04-15T10:04:39;17.70;1.00
6244;DHT22;3155;49.940;8.450;2023-04-15T10:07:11;17.60;99.90
6244;DHT22;3155;49.940;8.450;2023-04-15T10:09:38;17.20;99.90
6244;DHT22;3155;49.940;8.450;2023-04-15T10:12:05;17.10;1.00
6244;DHT22;3155;49.940;8.450;2023-04-15T10:14:33;17.00;99.90
6244;DHT22;3155;49.940;8.450;2023-04-15T10:17:01;17.00;1.00
6244;DHT22;3155;49.940;8.450;2023-04-15T10:19:30;17.10;99.90
6244;DHT22;3155;49.940;8.450;2023-04-15T10:21:59;17.20;1.00
6244;DHT22;3155;49.940;8.450;2023-04-15T10:24:26;17.20;1.00
6244;DHT22;3155;49.940;8.450;2023-04-15T10:26:53;17.50;1.00
6244;DHT22;3155;49.940;8.450;2023-04-15T10:29:21;17.30;99.70
6244;DHT22;3155;49.940;8.450;2023-04-15T10:31:55;17.40;99.90
6244;DHT22;3155;49.940;8.450;2023-04-15T10:34:23;17.30;99.90
6244;DHT22;3155;49.940;8.450;2023-04-15T10:36:50;16.90;1.00
6244;DHT22;3155;49.940;8.450;2023-04-15T10:42:07;16.70;99.90
6244;DHT22;3155;49.940;8.450;2023-04-15T10:44:38;16.50;53.50
6244;DHT22;3155;49.940;8.450;2023-04-15T10:47:17;16.40;99.90
6244;DHT22;3155;49.940;8.450;2023-04-15T10:49:49;16.10;99.90
6244;DHT22;3155;49.940;8.450;2023-04-15T10:52:24;16.60;1.00
6244;DHT22;3155;49.940;8.450;2023-04-15T10:55:13;17.00;1.00
6244;DHT22;3155;49.940;8.450;2023-04-15T10:57:51;17.10;99.90
6244;DHT22;3155;49.940;8.450;2023-04-15T11:00:20;16.90;99.90
6244;DHT22;3155;49.940;8.450;2023-04-15T11:03:52;16.80;99.90
6244;DHT22;3155;49.940;8.450;2023-04-15T11:05:56;16.40;1.00
6244;DHT22;3155;49.940;8.450;2023-04-15T11:08:56;16.40;99.90
6244;DHT22;3155;49.940;8.450;2023-04-15T11:14:28;16.20;99.90
6244;DHT22;3155;49.940;8.450;2023-04-15T11:16:58;16.40;10.20
6244;DHT22;3155;49.940;8.450;2023-04-15T11:19:24;16.70;99.90
6244;DHT22;3155;49.940;8.450;2023-04-15T11:21:51;16.80;1.00
6244;DHT22;3155;49.940;8.450;2023-04-15T11:24:24;16.70;1.00
6244;DHT22;3155;49.940;8.450;2023-04-15T11:26:57;16.70;99.80
6244;DHT22;3155;49.940;8.450;2023-04-15T11:29:31;16.60;82.30
6244;DHT22;3155;49.940;8.450;2023-04-15T11:32:08;16.40;1.00
6244;DHT22;3155;49.940;8.450;2023-04-15T11:34:35;16.30;1.00
6244;DHT22;3155;49.940;8.450;2023-04-15T11:37:09;16.20;1.00
6244;DHT22;3155;49.940;8.450;2023-04-15T11:39:36;16.40;1.00
6244;DHT22;3155;49.940;8.450;2023-04-15T11:42:03;16.90;99.90
6244;DHT22;3155;49.940;8.450;2023-04-15T11:44:41;17.20;99.90
6244;DHT22;3155;49.940;8.450;2023-04-15T11:47:23;17.40;99.90
6244;DHT22;3155;49.940;8.450;2023-04-15T11:49:50;17.40;52.90
6244;DHT22;3155;49.940;8.450;2023-04-15T11:52:20;17.40;99.90
6244;DHT22;3155;49.940;8.450;2023-04-15T11:54:47;17.80;99.90
6244;DHT22;3155;49.940;8.450;2023-04-15T11:57:14;18.10;99.90
6244;DHT22;3155;49.940;8.450;2023-04-15T11:59:42;18.20;99.90
6244;DHT22;3155;49.940;8.450;2023-04-15T12:02:12;18.10;99.90
6244;DHT22;3155;49.940;8.450;2023-04-15T12:04:39;17.70;99.90
6244;DHT22;3155;49.940;8.450;2023-04-15T12:07:07;16.90;91.80
6244;DHT22;3155;49.940;8.450;2023-04-15T12:09:37;16.60;99.90
6244;DHT22;3155;49.940;8.450;2023-04-15T12:12:04;16.30;99.90
6244;DHT22;3155;49.940;8.450;2023-04-15T12:14:33;16.10;95.40
6244;DHT22;3155;49.940;8.450;2023-04-15T12:17:02;15.80;99.90
6244;DHT22;3155;49.940;8.450;2023-04-15T12:19:40;15.40;1.00
6244;DHT22;3155;49.940;8.450;2023-04-15T12:22:12;15.20;1.00
6244;DHT22;3155;49.940;8.450;2023-04-15T12:24:42;14.80;1.00
6244;DHT22;3155;49.940;8.450;2023-04-15T12:27:17;14.60;99.90
6244;DHT22;3155;49.940;8.450;2023-04-15T12:29:44;14.40;1.00
6244;DHT22;3155;49.940;8.450;2023-04-15T12:32:16;14.30;99.90
6244;DHT22;3155;49.940;8.450;2023-04-15T12:34:51;14.10;99.90
6244;DHT22;3155;49.940;8.450;2023-04-15T12:37:18;14.00;85.90
6244;DHT22;3155;49.940;8.450;2023-04-15T12:39:47;13.80;1.00
6244;DHT22;3155;49.940;8.450;2023-04-15T12:42:15;13.80;99.90
6244;DHT22;3155;49.940;8.450;2023-04-15T12:44:42;13.70;99.90
6244;DHT22;3155;49.940;8.450;2023-04-15T12:47:11;14.10;1.00
6244;DHT22;3155;49.940;8.450;2023-04-15T12:49:38;14.60;1.00
6244;DHT22;3155;49.940;8.450;2023-04-15T12:52:05;14.60;99.90
6244;DHT22;3155;49.940;8.450;2023-04-15T12:54:32;14.70;1.00
6244;DHT22;3155;49.940;8.450;2023-04-15T12:56:59;14.40;99.90
6244;DHT22;3155;49.940;8.450;2023-04-15T12:59:26;14.90;1.00
6244;DHT22;3155;49.940;8.450;2023-04-15T13:01:53;15.70;1.00
6244;DHT22;3155;49.940;8.450;2023-04-15T13:04:26;15.80;99.90
6244;DHT22;3155;49.940;8.450;2023-04-15T13:06:56;16.10;99.90
6244;DHT22;3155;49.940;8.450;2023-04-15T13:09:23;16.30;99.90
6244;DHT22;3155;49.940;8.450;2023-04-15T13:11:49;16.30;1.00
6244;DHT22;3155;49.940;8.450;2023-04-15T13:14:16;15.90;99.90
6244;DHT22;3155;49.940;8.450;2023-04-15T13:16:43;15.50;1.00
6244;DHT22;3155;49.940;8.450;2023-04-15T13:19:10;15.00;1.00
6244;DHT22;3155;49.940;8.450;2023-04-15T13:21:36;14.40;99.90
6244;DHT22;3155;49.940;8.450;2023-04-15T13:24:03;13.60;99.90
6244;DHT22;3155;49.940;8.450;2023-04-15T13:26:32;12.90;99.90
6244;DHT22;3155;49.940;8.450;2023-04-15T13:29:00;12.40;99.90
6244;DHT22;3155;49.940;8.450;2023-04-15T13:31:26;12.10;1.00
6244;DHT22;3155;49.940;8.450;2023-04-15T13:33:53;11.90;18.50
6244;DHT22;3155;49.940;8.450;2023-04-15T13:36:20;11.50;99.90
6244;DHT22;3155;49.940;8.450;2023-04-15T13:38:47;11.10;84.90
6244;DHT22;3155;49.940;8.450;2023-04-15T13:41:17;10.90;1.00
6244;DHT22;3155;49.940;8.450;2023-04-15T13:43:44;10.60;1.00
6244;DHT22;3155;49.940;8.450;2023-04-15T13:46:11;10.60;99.90
6244;DHT22;3155;49.940;8.450;2023-04-15T13:48:38;10.60;1.00
6244;DHT22;3155;49.940;8.450;2023-04-15T13:51:04;10.60;1.00
6244;DHT22;3155;49.940;8.450;2023-04-15T13:53:32;10.70;1.00
6244;DHT22;3155;49.940;8.450;2023-04-15T13:56:06;10.80;1.00
6244;DHT22;3155;49.940;8.450;2023-04-15T13:58:39;10.60;1.00
6244;DHT22;3155;49.940;8.450;2023-04-15T14:01:06;10.50;1.00
6244;DHT22;3155;49.940;8.450;2023-04-15T14:03:34;10.50;1.00
6244;DHT22;3155;49.940;8.450;2023-04-15T14:06:02;10.50;1.00
6244;DHT22;3155;49.940;8.450;2023-04-15T14:08:29;10.30;1.00
6244;DHT22;3155;49.940;8.450;2023-04-15T14:10:56;10.00;1.00
6244;DHT22;3155;49.940;8.450;2023-04-15T14:13:23;10.00;99.90
6244;DHT22;3155;49.940;8.450;2023-04-15T14:15:50;9.90;99.90
6244;DHT22;3155;49.940;8.450;2023-04-15T14:18:16;9.90;99.90
6244;DHT22;3155;49.940;8.450;2023-04-15T14:20:45;9.80;99.90
6244;DHT22;3155;49.940;8.450;2023-04-15T14:23:15;9.70;99.90
6244;DHT22;3155;49.940;8.450;2023-04-15T14:25:42;9.50;99.90
6244;DHT22;3155;49.940;8.450;2023-04-15T14:28:11;9.50;99.90
6244;DHT22;3155;49.940;8.450;2023-04-15T14:30:37;9.50;32.10
6244;DHT22;3155;49.940;8.450;2023-04-15T14:33:04;9.50;99.90
6244;DHT22;3155;49.940;8.450;2023-04-15T14:35:34;9.40;99.90
6244;DHT22;3155;49.940;8.450;2023-04-15T14:38:04;9.40;1.00
6244;DHT22;3155;49.940;8.450;2023-04-15T14:40:37;9.30;99.90
6244;DHT22;3155;49.940;8.450;2023-04-15T14:43:03;9.30;99.90
6244;DHT22;3155;49.940;8.450;2023-04-15T14:45:30;9.20;99.90
6244;DHT22;3155;49.940;8.450;2023-04-15T14:47:58;9.20;1.00
6244;DHT22;3155;49.940;8.450;2023-04-15T14:50:25;9.20;1.00
6244;DHT22;3155;49.940;8.450;2023-04-15T14:52:51;9.00;99.90
6244;DHT22;3155;49.940;8.450;2023-04-15T14:55:18;8.90;99.90
6244;DHT22;3155;49.940;8.450;2023-04-15T14:57:47;8.80;99.90
6244;DHT22;3155;49.940;8.450;2023-04-15T15:00:14;8.80;99.90
6244;DHT22;3155;49.940;8.450;2023-04-15T15:02:42;8.80;99.90
6244;DHT22;3155;49.940;8.450;2023-04-15T15:05:11;8.80;1.00
6244;DHT22;3155;49.940;8.450;2023-04-15T15:07:39;8.80;1.00
6244;DHT22;3155;49.940;8.450;2023-04-15T15:10:08;8.80;99.90
6244;DHT22;3155;49.940;8.450;2023-04-15T15:12:35;8.80;1.00
6244;DHT22;3155;49.940;8.450;2023-04-15T15:15:03;8.70;1.00
6244;DHT22;3155;49.940;8.450;2023-04-15T15:17:45;8.80;1.00
6244;DHT22;3155;49.940;8.450;2023-04-15T15:20:12;8.80;99.90
6244;DHT22;3155;49.940;8.450;2023-04-15T15:22:38;8.70;99.90
6244;DHT22;3155;49.940;8.450;2023-04-15T15:25:05;8.60;1.00
6244;DHT22;3155;49.940;8.450;2023-04-15T15:27:32;8.70;99.90
6244;DHT22;3155;49.940;8.450;2023-04-15T15:29:59;8.70;1.00
6244;DHT22;3155;49.940;8.450;2023-04-15T15:32:26;8.60;1.00
6244;DHT22;3155;49.940;8.450;2023-04-15T15:34:52;8.50;14.20
6244;DHT22;3155;49.940;8.450;2023-04-15T15:37:19;8.50;59.70
6244;DHT22;3155;49.940;8.450;2023-04-15T15:39:47;8.40;1.00
6244;DHT22;3155;49.940;8.450;2023-04-15T15:42:14;8.40;23.90
6244;DHT22;3155;49.940;8.450;2023-04-15T15:44:41;8.40;99.90
6244;DHT22;3155;49.940;8.450;2023-04-15T15:47:07;8.30;1.00
6244;DHT22;3155;49.940;8.450;2023-04-15T15:49:34;8.30;1.00
6244;DHT22;3155;49.940;8.450;2023-04-15T15:52:01;8.40;1.00
6244;DHT22;3155;49.940;8.450;2023-04-15T15:54:28;8.30;1.00
6244;DHT22;3155;49.940;8.450;2023-04-15T15:56:54;8.40;30.20
6244;DHT22;3155;49.940;8.450;2023-04-15T15:59:23;8.30;99.90
6244;DHT22;3155;49.940;8.450;2023-04-15T16:01:51;8.40;99.90
6244;DHT22;3155;49.940;8.450;2023-04-15T16:04:18;8.40;99.90
6244;DHT22;3155;49.940;8.450;2023-04-15T16:06:47;8.30;1.00
6244;DHT22;3155;49.940;8.450;2023-04-15T16:09:16;8.30;1.00
6244;DHT22;3155;49.940;8.450;2023-04-15T16:11:44;8.20;1.00
6244;DHT22;3155;49.940;8.450;2023-04-15T16:14:11;8.20;1.00
6244;DHT22;3155;49.940;8.450;2023-04-15T16:16:39;8.20;92.80
6244;DHT22;3155;49.940;8.450;2023-04-15T16:19:06;8.30;91.40
6244;DHT22;3155;49.940;8.450;2023-04-15T16:21:33;8.20;73.90
6244;DHT22;3155;49.940;8.450;2023-04-15T16:24:00;8.20;99.90
6244;DHT22;3155;49.940;8.450;2023-04-15T16:26:27;8.20;99.90
6244;DHT22;3155;49.940;8.450;2023-04-15T16:28:54;8.20;99.90
6244;DHT22;3155;49.940;8.450;2023-04-15T16:31:21;8.10;58.90
6244;DHT22;3155;49.940;8.450;2023-04-15T16:33:47;8.00;57.90